Time;durP1;ratioP1;P1;durP2;ratioP2;P2;SDS_P1;SDS_P2;PMS_P1;PMS_P2;Temp;Humidity;BMP_temperature;BMP_pressure;BME280_temperature;BME280_humidity;BME280_pressure;Samples;Min_cycle;Max_cycle;Signal;HPM_P1;HPM_P2
2021/07/03 00:02:17;;;;;;;23.43;22.13;;;;;;;;;;5052769;28;20535;-65
2021/07/03 00:04:44;;;;;;;23.40;22.10;;;;;;;;;;5053220;28;20458;-65
2021/07/03 00:07:12;;;;;;;23.80;22.43;;;;;;;;;;5053433;28;20534;-65
2021/07/03 00:09:39;;;;;;;23.20;22.00;;;;;;;;;;5052529;28;20983;-66
2021/07/03 00:12:07;;;;;;;23.63;22.53;;;;;;;;;;5053063;28;20447;-66
2021/07/03 00:14:34;;;;;;;23.70;22.40;;;;;;;;;;5053132;28;20448;-65
2021/07/03 00:17:01;;;;;;;24.40;22.57;;;;;;;;;;5053074;28;20483;-66
2021/07/03 00:19:30;;;;;;;23.77;22.27;;;;;;;;;;5052727;28;20479;-65
2021/07/03 00:21:57;;;;;;;23.50;22.30;;;;;;;;;;5052356;28;20452;-67
2021/07/03 00:24:24;;;;;;;23.60;22.30;;;;;;;;;;5052435;28;20452;-67
2021/07/03 00:26:51;;;;;;;23.90;22.70;;;;;;;;;;5052450;28;20447;-67
2021/07/03 00:29:18;;;;;;;23.87;22.57;;;;;;;;;;5052200;28;20965;-67
2021/07/03 00:31:45;;;;;;;23.67;22.33;;;;;;;;;;5052441;28;20462;-67
2021/07/03 00:34:13;;;;;;;23.03;21.73;;;;;;;;;;5052482;28;20951;-67
2021/07/03 00:36:41;;;;;;;23.20;22.00;;;;;;;;;;5052072;28;20483;-67
2021/07/03 00:39:08;;;;;;;24.03;22.73;;;;;;;;;;5052343;28;20462;-67
2021/07/03 00:41:35;;;;;;;24.00;22.43;;;;;;;;;;5052299;28;20448;-67
2021/07/03 00:44:02;;;;;;;24.17;22.70;;;;;;;;;;5052736;28;20450;-68
2021/07/03 00:46:30;;;;;;;24.33;23.03;;;;;;;;;;5052529;28;20452;-67
2021/07/03 00:48:57;;;;;;;24.70;23.20;;;;;;;;;;5051948;28;20836;-67
2021/07/03 00:51:24;;;;;;;25.83;24.07;;;;;;;;;;5052290;28;20468;-66
2021/07/03 00:53:53;;;;;;;24.07;22.77;;;;;;;;;;5052025;28;20452;-67
2021/07/03 00:56:20;;;;;;;24.40;23.10;;;;;;;;;;5051185;28;21001;-66
2021/07/03 00:58:47;;;;;;;23.80;22.60;;;;;;;;;;5051811;28;20451;-66
2021/07/03 01:01:14;;;;;;;24.37;22.97;;;;;;;;;;5051860;28;20478;-66
2021/07/03 01:03:41;;;;;;;25.60;24.10;;;;;;;;;;5051613;28;20458;-67
2021/07/03 01:06:08;;;;;;;24.30;23.03;;;;;;;;;;5051743;28;20448;-67
2021/07/03 01:08:35;;;;;;;24.20;22.90;;;;;;;;;;5052011;28;20447;-68
2021/07/03 01:11:04;;;;;;;24.10;22.80;;;;;;;;;;5051437;28;20484;-67
2021/07/03 01:13:31;;;;;;;24.00;22.70;;;;;;;;;;5051971;28;20459;-68
2021/07/03 01:15:59;;;;;;;24.80;23.50;;;;;;;;;;5051213;28;20482;-67
2021/07/03 01:18:26;;;;;;;24.60;23.40;;;;;;;;;;5044816;28;20501;-67
2021/07/03 01:20:54;;;;;;;23.97;22.67;;;;;;;;;;5051322;28;20467;-67
2021/07/03 01:23:22;;;;;;;24.70;23.40;;;;;;;;;;5051087;28;20538;-67
2021/07/03 01:25:55;;;;;;;22.63;21.43;;;;;;;;;;5051803;28;20444;-68
2021/07/03 01:28:22;;;;;;;23.20;21.90;;;;;;;;;;5050754;28;20470;-66
2021/07/03 01:30:49;;;;;;;23.00;21.70;;;;;;;;;;5051502;28;20505;-67
2021/07/03 01:33:16;;;;;;;22.87;21.50;;;;;;;;;;5051881;28;20444;-66
2021/07/03 01:35:43;;;;;;;23.67;22.40;;;;;;;;;;5051511;28;20486;-67
2021/07/03 01:38:11;;;;;;;24.40;22.90;;;;;;;;;;5051644;28;20452;-66
2021/07/03 01:40:39;;;;;;;23.80;22.50;;;;;;;;;;5050736;28;20482;-67
2021/07/03 01:43:06;;;;;;;24.03;22.73;;;;;;;;;;5051876;28;20453;-67
2021/07/03 01:45:33;;;;;;;23.90;22.60;;;;;;;;;;5051220;28;20454;-67
2021/07/03 01:48:00;;;;;;;23.90;22.40;;;;;;;;;;5051094;28;20454;-68
2021/07/03 01:50:27;;;;;;;22.90;21.80;;;;;;;;;;5050836;28;21028;-67
2021/07/03 01:52:55;;;;;;;23.87;22.50;;;;;;;;;;5051452;28;20459;-68
2021/07/03 01:55:22;;;;;;;23.60;22.20;;;;;;;;;;5051092;28;20969;-67
2021/07/03 01:57:51;;;;;;;23.90;22.60;;;;;;;;;;5051006;28;20483;-67
2021/07/03 02:00:18;;;;;;;23.90;22.50;;;;;;;;;;5050519;28;20478;-67
2021/07/03 02:02:45;;;;;;;23.57;22.30;;;;;;;;;;5051414;28;20452;-67
2021/07/03 02:05:13;;;;;;;23.97;22.67;;;;;;;;;;5050913;28;20456;-67
2021/07/03 02:07:40;;;;;;;24.27;22.93;;;;;;;;;;5050864;28;20959;-67
2021/07/03 02:10:08;;;;;;;24.20;23.00;;;;;;;;;;5050806;28;20486;-66
2021/07/03 02:12:35;;;;;;;24.93;23.30;;;;;;;;;;5051206;28;20452;-67
2021/07/03 02:15:03;;;;;;;24.13;22.93;;;;;;;;;;5050833;28;20810;-67
2021/07/03 02:17:30;;;;;;;25.43;24.00;;;;;;;;;;5050559;28;21028;-67
2021/07/03 02:19:58;;;;;;;23.43;22.13;;;;;;;;;;5051267;28;20474;-66
2021/07/03 02:22:25;;;;;;;24.50;23.10;;;;;;;;;;5051113;28;20458;-68
2021/07/03 02:24:52;;;;;;;24.80;23.40;;;;;;;;;;5050271;28;20947;-67
2021/07/03 02:27:19;;;;;;;23.93;22.63;;;;;;;;;;5050963;28;20447;-67
2021/07/03 02:29:46;;;;;;;25.60;23.90;;;;;;;;;;5050594;28;20506;-66
2021/07/03 02:32:14;;;;;;;25.97;24.43;;;;;;;;;;5050893;28;20458;-67
2021/07/03 02:34:42;;;;;;;24.97;23.67;;;;;;;;;;5049138;28;20443;-68
2021/07/03 02:37:09;;;;;;;26.00;24.60;;;;;;;;;;5054179;28;20475;-68
2021/07/03 02:39:36;;;;;;;24.93;23.63;;;;;;;;;;5053877;28;20468;-68
2021/07/03 02:42:03;;;;;;;25.50;24.10;;;;;;;;;;5054803;28;20454;-68
2021/07/03 02:44:30;;;;;;;26.03;24.70;;;;;;;;;;5054558;28;20458;-67
2021/07/03 02:46:57;;;;;;;25.90;24.60;;;;;;;;;;5054718;28;20446;-68
2021/07/03 02:49:26;;;;;;;26.00;24.50;;;;;;;;;;5054236;28;20454;-66
2021/07/03 02:51:53;;;;;;;25.60;24.10;;;;;;;;;;5054444;28;20451;-67
2021/07/03 02:54:20;;;;;;;26.00;24.63;;;;;;;;;;5054209;28;20453;-67
2021/07/03 02:56:47;;;;;;;25.63;24.10;;;;;;;;;;5043099;28;20498;-67
2021/07/03 02:59:14;;;;;;;25.97;24.50;;;;;;;;;;5054524;28;20452;-66
2021/07/03 03:01:42;;;;;;;24.87;23.57;;;;;;;;;;5054085;28;20450;-67
2021/07/03 03:04:09;;;;;;;25.30;23.80;;;;;;;;;;5053588;28;20965;-66
2021/07/03 03:06:37;;;;;;;24.93;23.43;;;;;;;;;;5050902;28;20450;-67
2021/07/03 03:09:04;;;;;;;25.37;23.90;;;;;;;;;;5054013;28;20450;-68
2021/07/03 03:11:32;;;;;;;25.07;23.77;;;;;;;;;;5102345;22;20478;-71
2021/07/03 03:13:59;;;;;;;26.70;25.00;;;;;;;;;;5058662;28;20444;-69
2021/07/03 03:16:27;;;;;;;26.03;24.43;;;;;;;;;;5060605;28;20494;-69
2021/07/03 03:18:54;;;;;;;25.60;23.90;;;;;;;;;;5054001;28;20448;-70
2021/07/03 03:21:21;;;;;;;25.03;23.70;;;;;;;;;;5073174;28;20566;-69
2021/07/03 03:23:50;;;;;;;25.43;24.07;;;;;;;;;;5075818;28;20937;-70
2021/07/03 03:26:17;;;;;;;25.20;23.70;;;;;;;;;;5075742;28;20451;-72
2021/07/03 03:28:44;;;;;;;24.70;23.40;;;;;;;;;;5074717;28;20787;-69
2021/07/03 03:31:11;;;;;;;25.87;24.27;;;;;;;;;;5075212;28;20485;-69
2021/07/03 03:33:38;;;;;;;26.30;24.87;;;;;;;;;;5075539;28;20465;-70
2021/07/03 03:36:05;;;;;;;25.00;23.53;;;;;;;;;;5074994;28;20814;-69
2021/07/03 03:38:33;;;;;;;25.77;24.27;;;;;;;;;;5075201;28;20451;-70
2021/07/03 03:41:01;;;;;;;24.40;23.00;;;;;;;;;;5075422;28;20477;-71
2021/07/03 03:43:28;;;;;;;25.17;23.77;;;;;;;;;;5074756;28;20447;-71
2021/07/03 03:45:55;;;;;;;25.50;24.00;;;;;;;;;;5074438;28;20968;-69
2021/07/03 03:48:22;;;;;;;25.17;23.87;;;;;;;;;;5074872;28;20513;-72
2021/07/03 03:50:50;;;;;;;25.97;24.57;;;;;;;;;;5074925;28;20475;-70
2021/07/03 03:53:17;;;;;;;25.40;24.00;;;;;;;;;;5075179;28;20472;-72
2021/07/03 03:55:44;;;;;;;24.77;23.23;;;;;;;;;;5074546;28;20457;-70
2021/07/03 03:58:13;;;;;;;25.13;23.73;;;;;;;;;;5073796;28;20483;-71
2021/07/03 04:00:40;;;;;;;24.67;23.27;;;;;;;;;;5074856;28;20995;-70
2021/07/03 04:03:07;;;;;;;25.67;24.17;;;;;;;;;;5074450;28;20453;-72
2021/07/03 04:05:34;;;;;;;24.80;23.27;;;;;;;;;;5074972;28;20455;-70
2021/07/03 04:08:01;;;;;;;25.93;24.37;;;;;;;;;;5074931;28;20815;-72
2021/07/03 04:10:28;;;;;;;27.13;25.63;;;;;;;;;;5074534;28;20485;-70
2021/07/03 04:12:55;;;;;;;26.43;24.93;;;;;;;;;;5074528;28;20438;-71
2021/07/03 04:15:24;;;;;;;26.20;24.10;;;;;;;;;;5074759;28;20454;-71
2021/07/03 04:17:51;;;;;;;26.47;24.87;;;;;;;;;;5074762;28;20521;-71
2021/07/03 04:20:18;;;;;;;25.83;24.33;;;;;;;;;;5073873;28;20493;-70
2021/07/03 04:22:45;;;;;;;26.07;24.67;;;;;;;;;;5074777;28;20457;-71
2021/07/03 04:25:15;;;;;;;25.77;24.30;;;;;;;;;;5074901;28;20455;-69
2021/07/03 04:27:42;;;;;;;25.50;24.00;;;;;;;;;;5073552;28;20457;-71
2021/07/03 04:30:10;;;;;;;25.57;24.17;;;;;;;;;;5073655;28;20461;-67
2021/07/03 04:32:39;;;;;;;25.27;23.80;;;;;;;;;;5074150;28;20449;-71
2021/07/03 04:35:06;;;;;;;25.03;23.63;;;;;;;;;;5074596;28;20478;-70
2021/07/03 04:37:33;;;;;;;25.00;23.50;;;;;;;;;;5075015;28;20479;-70
2021/07/03 04:40:00;;;;;;;27.30;25.40;;;;;;;;;;5074585;28;20457;-71
2021/07/03 04:42:28;;;;;;;25.57;24.17;;;;;;;;;;5074598;28;20449;-71
2021/07/03 04:44:55;;;;;;;25.80;24.20;;;;;;;;;;5073761;28;20455;-71
2021/07/03 04:47:22;;;;;;;25.87;24.30;;;;;;;;;;5073450;28;20443;-71
2021/07/03 04:49:50;;;;;;;26.40;24.80;;;;;;;;;;5074378;28;20460;-69
2021/07/03 04:52:17;;;;;;;26.03;24.53;;;;;;;;;;5073479;28;20481;-71
2021/07/03 04:54:45;;;;;;;25.50;23.80;;;;;;;;;;5074275;28;20453;-70
2021/07/03 04:57:12;;;;;;;25.83;24.13;;;;;;;;;;5073154;28;20582;-71
2021/07/03 04:59:39;;;;;;;26.07;24.57;;;;;;;;;;5073683;28;20447;-71
2021/07/03 05:02:07;;;;;;;26.07;24.57;;;;;;;;;;5073618;28;20537;-71
2021/07/03 05:04:34;;;;;;;24.77;23.30;;;;;;;;;;5073402;28;20450;-71
2021/07/03 05:07:03;;;;;;;25.63;24.13;;;;;;;;;;5073825;28;20446;-69
2021/07/03 05:09:30;;;;;;;25.10;23.60;;;;;;;;;;5073987;28;20576;-71
2021/07/03 05:11:58;;;;;;;25.97;24.50;;;;;;;;;;5073220;28;21027;-69
2021/07/03 05:14:25;;;;;;;25.63;24.03;;;;;;;;;;5073545;28;20455;-71
2021/07/03 05:16:52;;;;;;;25.80;24.30;;;;;;;;;;5073672;28;20804;-71
2021/07/03 05:19:19;;;;;;;25.00;23.70;;;;;;;;;;5072965;28;20646;-71
2021/07/03 05:21:46;;;;;;;24.10;22.67;;;;;;;;;;5073207;28;20473;-71
2021/07/03 05:24:15;;;;;;;24.20;22.60;;;;;;;;;;5073051;28;21102;-70
2021/07/03 05:26:42;;;;;;;25.00;23.43;;;;;;;;;;5073812;28;20533;-70
2021/07/03 05:29:09;;;;;;;25.60;24.00;;;;;;;;;;5073560;28;20887;-71
2021/07/03 05:31:36;;;;;;;26.33;24.50;;;;;;;;;;5072815;28;20474;-69
2021/07/03 05:34:03;;;;;;;24.83;23.43;;;;;;;;;;5073164;28;20447;-70
2021/07/03 05:36:31;;;;;;;25.10;23.40;;;;;;;;;;5073420;28;20454;-70
2021/07/03 05:38:58;;;;;;;24.50;23.20;;;;;;;;;;5073102;28;21043;-71
2021/07/03 05:41:27;;;;;;;24.90;23.30;;;;;;;;;;5073240;28;20477;-70
2021/07/03 05:43:54;;;;;;;25.27;23.40;;;;;;;;;;5073344;28;20524;-69
2021/07/03 05:46:21;;;;;;;25.17;23.77;;;;;;;;;;5072973;28;20454;-70
2021/07/03 05:48:48;;;;;;;24.90;23.60;;;;;;;;;;5073076;28;20443;-69
2021/07/03 05:51:16;;;;;;;24.37;22.90;;;;;;;;;;5072629;28;20475;-70
2021/07/03 05:53:43;;;;;;;24.03;22.73;;;;;;;;;;5073623;28;20494;-71
2021/07/03 05:56:10;;;;;;;24.90;23.37;;;;;;;;;;5073053;28;20459;-71
2021/07/03 05:58:38;;;;;;;23.10;21.80;;;;;;;;;;5072378;28;20477;-71
2021/07/03 06:01:06;;;;;;;23.83;22.27;;;;;;;;;;5072735;28;20471;-71
2021/07/03 06:03:33;;;;;;;24.47;23.00;;;;;;;;;;5072611;28;20447;-70
2021/07/03 06:06:00;;;;;;;24.30;22.80;;;;;;;;;;5072790;28;20447;-71
2021/07/03 06:08:27;;;;;;;24.67;23.00;;;;;;;;;;5074594;28;20439;-71
2021/07/03 06:10:54;;;;;;;22.83;21.50;;;;;;;;;;5076207;28;20486;-71
2021/07/03 06:13:21;;;;;;;23.47;22.07;;;;;;;;;;5076036;28;20954;-70
2021/07/03 06:15:50;;;;;;;24.03;22.63;;;;;;;;;;5076563;28;20442;-71
2021/07/03 06:18:17;;;;;;;23.30;21.80;;;;;;;;;;5056534;28;20484;-71
2021/07/03 06:20:44;;;;;;;31.10;29.50;;;;;;;;;;5056246;28;20475;-72
2021/07/03 06:23:11;;;;;;;23.10;21.70;;;;;;;;;;5075315;28;20516;-71
2021/07/03 06:25:39;;;;;;;23.33;22.13;;;;;;;;;;5077039;28;20640;-72
2021/07/03 06:28:06;;;;;;;23.40;22.00;;;;;;;;;;5078413;28;20501;-72
2021/07/03 06:30:33;;;;;;;23.40;22.10;;;;;;;;;;5076446;28;20909;-71
2021/07/03 06:33:01;;;;;;;22.77;21.57;;;;;;;;;;5075488;28;20469;-71
2021/07/03 06:35:29;;;;;;;24.13;22.73;;;;;;;;;;5076422;28;20452;-71
2021/07/03 06:37:56;;;;;;;23.10;21.80;;;;;;;;;;5075314;28;20479;-69
2021/07/03 06:40:23;;;;;;;23.00;21.60;;;;;;;;;;5075860;28;20466;-69
2021/07/03 06:42:50;;;;;;;22.80;21.60;;;;;;;;;;5075382;28;20454;-70
2021/07/03 06:45:17;;;;;;;21.63;20.53;;;;;;;;;;5069709;28;20451;-69
2021/07/03 06:47:44;;;;;;;21.90;20.80;;;;;;;;;;5068869;28;21133;-69
2021/07/03 06:50:13;;;;;;;21.20;20.00;;;;;;;;;;5070227;28;20453;-69
2021/07/03 06:52:40;;;;;;;23.20;21.90;;;;;;;;;;5059961;28;20470;-69
2021/07/03 06:55:08;;;;;;;22.73;21.43;;;;;;;;;;5070492;28;20453;-69
2021/07/03 06:57:35;;;;;;;22.40;21.10;;;;;;;;;;5075255;28;20478;-69
2021/07/03 07:00:02;;;;;;;22.47;21.27;;;;;;;;;;5072582;28;20462;-71
2021/07/03 07:02:29;;;;;;;21.83;20.73;;;;;;;;;;5075730;28;20955;-69
2021/07/03 07:04:57;;;;;;;22.30;21.20;;;;;;;;;;5077986;28;20451;-69
2021/07/03 07:07:25;;;;;;;21.93;20.83;;;;;;;;;;5078085;28;20949;-69
2021/07/03 07:09:52;;;;;;;22.17;21.07;;;;;;;;;;5073724;28;20468;-70
2021/07/03 07:12:19;;;;;;;20.30;19.23;;;;;;;;;;5077427;28;20489;-71
2021/07/03 07:14:46;;;;;;;24.13;22.83;;;;;;;;;;5081243;28;20550;-70
2021/07/03 07:17:13;;;;;;;24.40;23.10;;;;;;;;;;5084130;28;20461;-70
2021/07/03 07:19:41;;;;;;;24.27;22.97;;;;;;;;;;5084280;28;20553;-71
2021/07/03 07:22:08;;;;;;;23.63;22.37;;;;;;;;;;5085143;28;20973;-71
2021/07/03 07:24:36;;;;;;;25.00;23.60;;;;;;;;;;5084509;28;20478;-71
2021/07/03 07:27:04;;;;;;;23.90;22.70;;;;;;;;;;5075116;28;20473;-71
2021/07/03 07:29:31;;;;;;;24.50;23.30;;;;;;;;;;5074558;28;20454;-71
2021/07/03 07:31:58;;;;;;;24.73;23.50;;;;;;;;;;5074402;28;20474;-71
2021/07/03 07:34:25;;;;;;;25.10;23.90;;;;;;;;;;5074084;28;20447;-71
2021/07/03 07:36:52;;;;;;;24.93;23.53;;;;;;;;;;5074263;28;20809;-71
2021/07/03 07:39:19;;;;;;;24.70;23.50;;;;;;;;;;5074250;28;20478;-71
2021/07/03 07:41:48;;;;;;;24.43;23.20;;;;;;;;;;5074183;28;20477;-71
2021/07/03 07:44:15;;;;;;;24.40;23.10;;;;;;;;;;5074145;28;20817;-71
2021/07/03 07:46:42;;;;;;;25.37;23.87;;;;;;;;;;5071735;28;20860;-69
2021/07/03 07:49:09;;;;;;;24.47;23.07;;;;;;;;;;5072676;28;20462;-71
2021/07/03 07:51:36;;;;;;;24.50;23.10;;;;;;;;;;5073651;28;20489;-70
2021/07/03 07:54:04;;;;;;;24.20;23.00;;;;;;;;;;5073794;28;20451;-72
2021/07/03 07:56:31;;;;;;;23.50;22.30;;;;;;;;;;5074135;28;20531;-71
2021/07/03 07:58:59;;;;;;;23.40;22.10;;;;;;;;;;5074040;28;20848;-69
2021/07/03 08:01:27;;;;;;;25.00;23.50;;;;;;;;;;5058084;28;20473;-71
2021/07/03 08:03:54;;;;;;;25.30;23.90;;;;;;;;;;5074890;28;20545;-71
2021/07/03 08:06:21;;;;;;;24.60;23.10;;;;;;;;;;5073829;28;20447;-69
2021/07/03 08:08:48;;;;;;;25.40;23.90;;;;;;;;;;5074979;28;20498;-68
2021/07/03 08:11:15;;;;;;;25.30;23.83;;;;;;;;;;5073306;28;21031;-68
2021/07/03 08:13:42;;;;;;;24.50;22.87;;;;;;;;;;5074614;28;20446;-69
2021/07/03 08:16:11;;;;;;;25.30;23.90;;;;;;;;;;5074079;28;20463;-68
2021/07/03 08:18:38;;;;;;;24.67;23.37;;;;;;;;;;5073207;28;20490;-69
2021/07/03 08:21:05;;;;;;;25.60;24.20;;;;;;;;;;5074590;28;20470;-68
2021/07/03 08:23:32;;;;;;;24.73;23.33;;;;;;;;;;5074533;28;20458;-68
2021/07/03 08:25:59;;;;;;;25.10;23.80;;;;;;;;;;5074355;28;20469;-68
2021/07/03 08:28:27;;;;;;;24.47;23.27;;;;;;;;;;5073526;28;20453;-72
2021/07/03 08:30:54;;;;;;;26.53;24.80;;;;;;;;;;5075060;28;20558;-68
2021/07/03 08:33:22;;;;;;;28.23;26.17;;;;;;;;;;5069891;28;20447;-67
2021/07/03 08:35:49;;;;;;;26.20;24.60;;;;;;;;;;5071953;28;20524;-64
2021/07/03 08:38:17;;;;;;;25.33;23.70;;;;;;;;;;5073252;28;20482;-64
2021/07/03 08:40:44;;;;;;;26.07;24.40;;;;;;;;;;5073376;28;20483;-64
2021/07/03 08:43:11;;;;;;;26.70;25.07;;;;;;;;;;5073317;28;20466;-64
2021/07/03 08:45:39;;;;;;;24.93;23.53;;;;;;;;;;5074030;28;20447;-64
2021/07/03 08:48:06;;;;;;;25.40;23.90;;;;;;;;;;5071517;28;20463;-64
2021/07/03 08:50:34;;;;;;;25.10;23.70;;;;;;;;;;5070169;28;20479;-64
2021/07/03 08:53:01;;;;;;;25.47;24.17;;;;;;;;;;5072225;28;20459;-64
2021/07/03 08:55:30;;;;;;;25.03;23.73;;;;;;;;;;5074378;28;20450;-63
2021/07/03 08:58:05;;;;;;;24.77;23.40;;;;;;;;;;5072455;28;20466;-63
2021/07/03 09:00:33;;;;;;;25.33;24.03;;;;;;;;;;5072094;28;20478;-63
2021/07/03 09:03:01;;;;;;;21.53;20.47;;;;;;;;;;5072238;28;20534;-64
2021/07/03 09:05:30;;;;;;;23.30;22.00;;;;;;;;;;5072210;28;20553;-64
2021/07/03 09:07:59;;;;;;;23.43;22.20;;;;;;;;;;5071888;28;21034;-63
2021/07/03 09:10:27;;;;;;;23.93;22.57;;;;;;;;;;5072172;28;20486;-63
2021/07/03 09:12:54;;;;;;;22.97;21.77;;;;;;;;;;5069687;28;20490;-63
2021/07/03 09:15:22;;;;;;;21.50;20.40;;;;;;;;;;5072379;28;20449;-63
2021/07/03 09:17:50;;;;;;;21.30;20.20;;;;;;;;;;5071873;28;20465;-63
2021/07/03 09:20:28;;;;;;;23.47;22.20;;;;;;;;;;5070432;28;20513;-63
2021/07/03 09:23:01;;;;;;;22.73;21.63;;;;;;;;;;5071118;28;20475;-64
2021/07/03 09:25:29;;;;;;;20.10;19.10;;;;;;;;;;5070813;28;20933;-64
2021/07/03 09:27:56;;;;;;;19.10;18.20;;;;;;;;;;5072075;28;20849;-64
2021/07/03 09:30:23;;;;;;;20.00;19.10;;;;;;;;;;5070387;28;20505;-64
2021/07/03 09:32:51;;;;;;;20.77;19.57;;;;;;;;;;5071515;28;20467;-64
2021/07/03 09:35:18;;;;;;;19.60;18.50;;;;;;;;;;5068634;28;20473;-63
2021/07/03 09:37:45;;;;;;;19.70;18.80;;;;;;;;;;5065839;28;20447;-64
2021/07/03 09:40:14;;;;;;;19.03;18.03;;;;;;;;;;5068019;28;20486;-65
2021/07/03 09:42:42;;;;;;;20.03;18.90;;;;;;;;;;5070973;28;20469;-64
2021/07/03 09:45:11;;;;;;;18.83;17.97;;;;;;;;;;5071092;28;20467;-65
2021/07/03 09:47:38;;;;;;;19.53;18.60;;;;;;;;;;5068945;28;20815;-65
2021/07/03 09:50:06;;;;;;;20.10;19.00;;;;;;;;;;5071261;28;20465;-71
2021/07/03 09:52:35;;;;;;;19.23;18.20;;;;;;;;;;5070024;28;20469;-68
2021/07/03 09:55:18;;;;;;;19.90;18.73;;;;;;;;;;5069618;28;20458;-69
2021/07/03 09:57:47;;;;;;;18.87;17.97;;;;;;;;;;5071554;28;20447;-68
2021/07/03 10:00:15;;;;;;;19.00;18.03;;;;;;;;;;5070456;28;20487;-69
2021/07/03 10:02:42;;;;;;;19.27;18.37;;;;;;;;;;5070040;28;20462;-68
2021/07/03 10:05:10;;;;;;;19.23;18.23;;;;;;;;;;5071716;28;20447;-68
2021/07/03 10:07:40;;;;;;;18.67;17.63;;;;;;;;;;5070731;28;20458;-68
2021/07/03 10:10:08;;;;;;;19.10;18.00;;;;;;;;;;5068261;28;20558;-68
2021/07/03 10:12:39;;;;;;;18.60;17.40;;;;;;;;;;5070655;28;20813;-69
2021/07/03 10:15:06;;;;;;;19.53;18.43;;;;;;;;;;5060441;28;20449;-68
2021/07/03 10:17:35;;;;;;;19.80;18.70;;;;;;;;;;5071693;28;20453;-68
2021/07/03 10:20:04;;;;;;;19.13;18.03;;;;;;;;;;5070692;28;20483;-69
2021/07/03 10:22:33;;;;;;;19.27;18.27;;;;;;;;;;5071404;28;20451;-69
2021/07/03 10:25:01;;;;;;;18.80;17.80;;;;;;;;;;5071141;28;20833;-69
2021/07/03 10:27:29;;;;;;;19.10;18.20;;;;;;;;;;5071095;28;20453;-68
2021/07/03 10:29:58;;;;;;;18.47;17.57;;;;;;;;;;5070668;28;20445;-68
2021/07/03 10:32:27;;;;;;;18.43;17.53;;;;;;;;;;5069695;28;20451;-68
2021/07/03 10:34:54;;;;;;;18.43;17.53;;;;;;;;;;5067768;28;20472;-69
2021/07/03 10:37:32;;;;;;;18.40;17.60;;;;;;;;;;5067870;28;20454;-69
2021/07/03 10:39:59;;;;;;;21.10;20.00;;;;;;;;;;5062655;28;20885;-68
2021/07/03 10:42:27;;;;;;;21.23;20.23;;;;;;;;;;5070232;28;20807;-68
2021/07/03 10:44:55;;;;;;;20.10;19.10;;;;;;;;;;5071135;28;20447;-68
2021/07/03 10:47:33;;;;;;;20.97;19.87;;;;;;;;;;5070927;28;20454;-67
2021/07/03 10:50:00;;;;;;;20.87;19.87;;;;;;;;;;5070816;28;20516;-67
2021/07/03 10:52:38;;;;;;;20.87;19.67;;;;;;;;;;5070301;28;20447;-67
2021/07/03 10:55:06;;;;;;;20.20;19.20;;;;;;;;;;5052360;28;20534;-67
2021/07/03 10:57:41;;;;;;;19.80;18.80;;;;;;;;;;5074413;28;20457;-67
2021/07/03 11:00:09;;;;;;;21.00;19.90;;;;;;;;;;5074695;28;20498;-67
2021/07/03 11:02:37;;;;;;;20.63;19.63;;;;;;;;;;5074434;28;20446;-66
2021/07/03 11:05:10;;;;;;;19.53;18.63;;;;;;;;;;5074081;28;20461;-67
2021/07/03 11:07:37;;;;;;;20.23;19.23;;;;;;;;;;5074309;28;20439;-66
2021/07/03 11:10:06;;;;;;;19.17;18.27;;;;;;;;;;5070564;28;20444;-67
2021/07/03 11:12:44;;;;;;;19.87;18.87;;;;;;;;;;5064909;28;20450;-66
2021/07/03 11:15:12;;;;;;;19.87;18.97;;;;;;;;;;5074282;28;20512;-67
2021/07/03 11:17:40;;;;;;;19.67;18.77;;;;;;;;;;5074371;28;20453;-66
2021/07/03 11:20:08;;;;;;;20.77;19.77;;;;;;;;;;5074120;28;20993;-66
2021/07/03 11:22:35;;;;;;;20.80;19.70;;;;;;;;;;5073683;28;20475;-67
2021/07/03 11:25:02;;;;;;;20.30;19.30;;;;;;;;;;5074244;28;20447;-66
2021/07/03 11:27:31;;;;;;;18.60;17.70;;;;;;;;;;5073455;28;20445;-66
2021/07/03 11:29:58;;;;;;;17.40;16.57;;;;;;;;;;5072168;28;20484;-69
2021/07/03 11:32:25;;;;;;;19.50;18.50;;;;;;;;;;5073092;28;20450;-67
2021/07/03 11:34:55;;;;;;;18.90;18.00;;;;;;;;;;5073669;28;20473;-69
2021/07/03 11:37:26;;;;;;;18.90;18.00;;;;;;;;;;5054105;28;20443;-68
2021/07/03 11:39:53;;;;;;;19.20;18.27;;;;;;;;;;5072196;28;20478;-68
2021/07/03 11:42:26;;;;;;;18.30;17.47;;;;;;;;;;5072946;28;20453;-70
2021/07/03 11:44:53;;;;;;;17.83;17.03;;;;;;;;;;5073234;28;20451;-68
2021/07/03 11:47:21;;;;;;;18.07;17.00;;;;;;;;;;5073610;28;20477;-69
2021/07/03 11:49:48;;;;;;;19.33;18.33;;;;;;;;;;5073583;28;20452;-69
2021/07/03 11:52:16;;;;;;;19.60;18.67;;;;;;;;;;5073300;28;20477;-69
2021/07/03 11:54:43;;;;;;;19.87;18.80;;;;;;;;;;5073751;28;20446;-68
2021/07/03 11:57:10;;;;;;;19.43;18.53;;;;;;;;;;5073589;28;20454;-69
2021/07/03 11:59:37;;;;;;;21.10;20.03;;;;;;;;;;5072982;28;20479;-70
2021/07/03 12:02:05;;;;;;;21.00;20.00;;;;;;;;;;5072506;28;20471;-70
2021/07/03 12:04:33;;;;;;;17.70;16.80;;;;;;;;;;5073474;28;20518;-71
2021/07/03 12:07:01;;;;;;;18.03;17.23;;;;;;;;;;5072520;28;20457;-70
2021/07/03 12:09:36;;;;;;;18.87;17.97;;;;;;;;;;5073349;28;20442;-70
2021/07/03 12:12:03;;;;;;;18.63;17.73;;;;;;;;;;5072595;28;20841;-70
2021/07/03 12:14:30;;;;;;;19.10;18.20;;;;;;;;;;5073281;28;20453;-70
2021/07/03 12:16:58;;;;;;;18.33;17.53;;;;;;;;;;5073309;28;20450;-70
2021/07/03 12:19:26;;;;;;;18.23;17.33;;;;;;;;;;5072330;28;20860;-70
2021/07/03 12:21:53;;;;;;;19.07;18.13;;;;;;;;;;5072883;28;20467;-70
2021/07/03 12:24:28;;;;;;;18.60;17.80;;;;;;;;;;5073232;28;20459;-70
2021/07/03 12:26:56;;;;;;;19.27;18.37;;;;;;;;;;5073049;28;20427;-70
2021/07/03 12:29:29;;;;;;;18.80;17.90;;;;;;;;;;5072801;28;20438;-70
2021/07/03 12:32:07;;;;;;;18.20;17.30;;;;;;;;;;5072886;28;20473;-70
2021/07/03 12:34:36;;;;;;;19.30;18.33;;;;;;;;;;5072390;28;20937;-70
2021/07/03 12:37:05;;;;;;;18.50;17.60;;;;;;;;;;5072538;28;20826;-70
2021/07/03 12:39:32;;;;;;;18.80;17.80;;;;;;;;;;5072232;28;20486;-71
2021/07/03 12:42:03;;;;;;;19.20;18.30;;;;;;;;;;5072437;28;20477;-70
2021/07/03 12:44:33;;;;;;;19.43;18.50;;;;;;;;;;5072674;28;20812;-70
2021/07/03 12:47:01;;;;;;;19.17;18.27;;;;;;;;;;5072000;28;20460;-70
2021/07/03 12:49:32;;;;;;;19.20;18.30;;;;;;;;;;5072438;28;20443;-70
2021/07/03 12:52:00;;;;;;;19.20;18.20;;;;;;;;;;5072461;28;20471;-70
2021/07/03 12:54:27;;;;;;;20.07;19.07;;;;;;;;;;5072658;28;20449;-70
2021/07/03 12:56:54;;;;;;;19.23;18.33;;;;;;;;;;5072270;28;20443;-70
2021/07/03 12:59:33;;;;;;;18.93;17.83;;;;;;;;;;5072518;28;20483;-70
2021/07/03 13:02:03;;;;;;;19.30;18.40;;;;;;;;;;5071627;28;20473;-70
2021/07/03 13:04:31;;;;;;;18.73;17.83;;;;;;;;;;5072510;28;20798;-70
2021/07/03 13:06:58;;;;;;;18.80;17.90;;;;;;;;;;5071956;28;20485;-70
2021/07/03 13:09:25;;;;;;;19.20;18.27;;;;;;;;;;5072174;28;20471;-70
2021/07/03 13:11:52;;;;;;;18.53;17.63;;;;;;;;;;5071567;28;20859;-70
2021/07/03 13:14:19;;;;;;;18.90;18.00;;;;;;;;;;5072020;28;20449;-70
2021/07/03 13:16:47;;;;;;;19.07;18.17;;;;;;;;;;5071713;28;20451;-70
2021/07/03 13:19:15;;;;;;;19.07;18.17;;;;;;;;;;5071548;28;20547;-71
2021/07/03 13:21:42;;;;;;;18.50;17.60;;;;;;;;;;5071684;28;20553;-70
2021/07/03 13:24:09;;;;;;;19.00;18.10;;;;;;;;;;5072100;28;20903;-70
2021/07/03 13:26:37;;;;;;;18.73;17.83;;;;;;;;;;5071821;28;20439;-70
2021/07/03 13:29:04;;;;;;;18.30;17.50;;;;;;;;;;5071546;28;22077;-69
2021/07/03 13:31:31;;;;;;;19.03;18.13;;;;;;;;;;5071176;28;20463;-71
2021/07/03 13:34:00;;;;;;;19.00;18.10;;;;;;;;;;5071772;28;20446;-69
2021/07/03 13:36:27;;;;;;;18.47;17.60;;;;;;;;;;5071786;28;20824;-70
2021/07/03 13:38:54;;;;;;;18.37;17.57;;;;;;;;;;5071822;28;20457;-70
2021/07/03 13:41:21;;;;;;;18.13;17.33;;;;;;;;;;5071628;28;20509;-69
2021/07/03 13:43:48;;;;;;;18.77;17.97;;;;;;;;;;5070646;28;20451;-70
2021/07/03 13:46:16;;;;;;;18.43;17.53;;;;;;;;;;5071716;28;20450;-70
2021/07/03 13:48:43;;;;;;;19.23;18.27;;;;;;;;;;5071184;28;20461;-70
2021/07/03 13:51:12;;;;;;;19.27;18.37;;;;;;;;;;5071347;28;20465;-70
2021/07/03 13:53:39;;;;;;;18.60;17.70;;;;;;;;;;5071660;28;20450;-70
2021/07/03 13:56:06;;;;;;;19.07;18.17;;;;;;;;;;5071503;28;20450;-70
2021/07/03 13:58:33;;;;;;;19.00;18.10;;;;;;;;;;5071230;28;20462;-69
2021/07/03 14:01:01;;;;;;;18.47;17.67;;;;;;;;;;5071417;28;20497;-70
2021/07/03 14:03:28;;;;;;;18.90;18.00;;;;;;;;;;5071566;28;20447;-70
2021/07/03 14:05:55;;;;;;;18.63;17.80;;;;;;;;;;5071262;28;20450;-69
2021/07/03 14:08:24;;;;;;;19.17;18.13;;;;;;;;;;5071202;28;20449;-70
2021/07/03 14:10:51;;;;;;;19.20;18.20;;;;;;;;;;5071266;28;20549;-70
2021/07/03 14:13:18;;;;;;;19.17;18.27;;;;;;;;;;5071839;28;20447;-71
2021/07/03 14:15:46;;;;;;;19.13;18.23;;;;;;;;;;5071638;28;20455;-70
2021/07/03 14:18:13;;;;;;;18.80;17.90;;;;;;;;;;5071578;28;20598;-71
2021/07/03 14:20:40;;;;;;;19.60;18.60;;;;;;;;;;5070881;28;20516;-70